Time;durP1;ratioP1;P1;durP2;ratioP2;P2;SDS_P1;SDS_P2;PMS_P1;PMS_P2;Temp;Humidity;BMP_temperature;BMP_pressure;BME280_temperature;BME280_humidity;BME280_pressure;Samples;Min_cycle;Max_cycle;Signal;HPM_P1;HPM_P2
2023/07/31 00:04:06;;;;;;;4.75;1.70;;;;;;;;;;21081227;28;20052;-66
2023/07/31 00:14:07;;;;;;;3.60;1.50;;;;;;;;;;21079461;28;20048;-65
2023/07/31 00:24:08;;;;;;;3.30;2.00;;;;;;;;;;21080312;28;20048;-66
2023/07/31 00:34:09;;;;;;;2.50;1.42;;;;;;;;;;21079987;28;20074;-68
2023/07/31 00:44:10;;;;;;;4.03;1.77;;;;;;;;;;21088716;28;20431;-65
2023/07/31 00:54:11;;;;;;;3.08;1.33;;;;;;;;;;21094295;28;20120;-66
2023/07/31 01:04:13;;;;;;;2.35;1.10;;;;;;;;;;21095232;28;20508;-66
2023/07/31 01:14:14;;;;;;;2.65;1.20;;;;;;;;;;21093600;28;20501;-67
2023/07/31 01:24:21;;;;;;;2.15;1.35;;;;;;;;;;21092376;28;20051;-66
2023/07/31 01:34:23;;;;;;;1.83;1.00;;;;;;;;;;21092611;28;20043;-66
2023/07/31 01:44:24;;;;;;;0.93;0.73;;;;;;;;;;21090698;28;20062;-66
2023/07/31 01:54:25;;;;;;;1.85;1.25;;;;;;;;;;21090898;28;20083;-66
2023/07/31 02:04:26;;;;;;;2.00;1.02;;;;;;;;;;21089169;28;20044;-66
2023/07/31 02:14:27;;;;;;;2.50;0.98;;;;;;;;;;21088786;28;20447;-66
2023/07/31 02:24:28;;;;;;;1.30;0.95;;;;;;;;;;21087701;28;20048;-66
2023/07/31 02:34:30;;;;;;;2.10;0.80;;;;;;;;;;21086543;28;20058;-67
2023/07/31 02:44:31;;;;;;;1.60;1.10;;;;;;;;;;21086929;28;20063;-67
2023/07/31 02:54:32;;;;;;;3.47;1.10;;;;;;;;;;21086571;28;20067;-66
2023/07/31 03:04:33;;;;;;;3.30;0.93;;;;;;;;;;21084574;28;20040;-65
2023/07/31 03:14:34;;;;;;;1.30;1.13;;;;;;;;;;21083114;28;20155;-66
2023/07/31 03:24:35;;;;;;;2.03;1.20;;;;;;;;;;21084127;28;20040;-66
2023/07/31 03:34:37;;;;;;;1.70;1.33;;;;;;;;;;21083131;28;20043;-66
2023/07/31 03:44:38;;;;;;;1.95;1.00;;;;;;;;;;21081288;28;20097;-66
2023/07/31 03:54:39;;;;;;;1.58;0.82;;;;;;;;;;21080519;28;20047;-65
2023/07/31 04:04:40;;;;;;;1.33;0.80;;;;;;;;;;21079782;28;20043;-65
2023/07/31 04:14:42;;;;;;;0.70;0.60;;;;;;;;;;21079410;28;20051;-65
2023/07/31 04:24:43;;;;;;;1.15;0.73;;;;;;;;;;21080071;28;20048;-66
2023/07/31 04:34:44;;;;;;;2.35;1.00;;;;;;;;;;21079370;28;20076;-64
2023/07/31 04:44:45;;;;;;;1.00;0.70;;;;;;;;;;21078208;28;20048;-64
2023/07/31 04:54:46;;;;;;;1.27;0.88;;;;;;;;;;21078041;28;20043;-63
2023/07/31 05:04:48;;;;;;;2.22;1.20;;;;;;;;;;21077663;28;20127;-63
2023/07/31 05:14:49;;;;;;;3.90;1.15;;;;;;;;;;21077516;28;20098;-64
2023/07/31 05:24:50;;;;;;;2.58;1.30;;;;;;;;;;21076603;28;20075;-64
2023/07/31 05:34:52;;;;;;;3.47;1.30;;;;;;;;;;21090673;28;20488;-65
2023/07/31 05:44:53;;;;;;;4.75;1.00;;;;;;;;;;21091083;28;20404;-64
2023/07/31 05:54:54;;;;;;;1.60;1.10;;;;;;;;;;21090424;28;20497;-64
2023/07/31 06:04:55;;;;;;;3.65;1.65;;;;;;;;;;21089833;28;20047;-63
2023/07/31 06:14:56;;;;;;;2.67;1.00;;;;;;;;;;21087836;28;20048;-63
2023/07/31 06:24:58;;;;;;;2.35;0.93;;;;;;;;;;21088480;28;20485;-63
2023/07/31 06:34:59;;;;;;;3.88;1.50;;;;;;;;;;21086360;28;20040;-65
2023/07/31 06:45:00;;;;;;;1.73;1.13;;;;;;;;;;21085696;28;20054;-63
2023/07/31 06:55:03;;;;;;;1.98;1.17;;;;;;;;;;21086004;28;20044;-64
2023/07/31 07:05:04;;;;;;;4.75;1.35;;;;;;;;;;21085503;28;20458;-64
2023/07/31 07:15:06;;;;;;;1.80;1.10;;;;;;;;;;21081762;28;20052;-63
2023/07/31 07:25:07;;;;;;;1.63;1.15;;;;;;;;;;21081993;28;20044;-64
2023/07/31 07:35:09;;;;;;;3.80;1.45;;;;;;;;;;21081358;28;20131;-64
2023/07/31 07:45:11;;;;;;;2.90;1.40;;;;;;;;;;21080924;28;20134;-64
2023/07/31 07:55:12;;;;;;;4.63;1.77;;;;;;;;;;21080068;28;20048;-64
2023/07/31 08:05:13;;;;;;;4.10;1.40;;;;;;;;;;21081507;28;20078;-64
2023/07/31 08:15:14;;;;;;;6.47;1.60;;;;;;;;;;21079693;28;20060;-64
2023/07/31 08:25:15;;;;;;;3.72;1.50;;;;;;;;;;21078776;28;20054;-63
2023/07/31 08:35:16;;;;;;;2.35;1.92;;;;;;;;;;21078087;28;20135;-63
2023/07/31 08:45:18;;;;;;;6.63;1.63;;;;;;;;;;21077855;28;20048;-64
2023/07/31 08:55:24;;;;;;;4.50;1.63;;;;;;;;;;21077019;28;20110;-65
2023/07/31 09:05:27;;;;;;;2.83;1.63;;;;;;;;;;21084350;28;20055;-64
2023/07/31 09:15:29;;;;;;;4.95;1.83;;;;;;;;;;21093979;28;20135;-65
2023/07/31 09:25:30;;;;;;;7.60;1.73;;;;;;;;;;21093405;28;20481;-66
2023/07/31 09:35:32;;;;;;;3.75;1.48;;;;;;;;;;21092753;28;20113;-64
2023/07/31 09:45:43;;;;;;;3.15;1.42;;;;;;;;;;21091315;28;20074;-64
2023/07/31 09:55:44;;;;;;;6.55;4.53;;;;;;;;;;21091338;28;20044;-65
2023/07/31 10:05:50;;;;;;;3.92;1.58;;;;;;;;;;21090406;28;20436;-64
2023/07/31 10:15:51;;;;;;;5.78;1.40;;;;;;;;;;21090018;28;20485;-64
2023/07/31 10:25:54;;;;;;;7.20;1.63;;;;;;;;;;21088485;28;20477;-65
2023/07/31 10:36:14;;;;;;;3.90;1.92;;;;;;;;;;21086769;28;20032;-65
2023/07/31 10:46:15;;;;;;;6.65;1.75;;;;;;;;;;21086882;28;20491;-64
2023/07/31 10:56:22;;;;;;;5.45;1.67;;;;;;;;;;21085808;28;20044;-64
2023/07/31 11:06:23;;;;;;;6.10;1.80;;;;;;;;;;21083910;28;20093;-64
2023/07/31 11:16:25;;;;;;;8.05;2.20;;;;;;;;;;21082335;28;20048;-64
2023/07/31 11:26:26;;;;;;;11.55;2.80;;;;;;;;;;21082524;28;20047;-65
2023/07/31 11:36:27;;;;;;;4.90;1.90;;;;;;;;;;21081996;28;20048;-65
2023/07/31 11:46:30;;;;;;;2.08;1.58;;;;;;;;;;21081259;28;20063;-64
2023/07/31 11:56:32;;;;;;;2.75;1.77;;;;;;;;;;21079093;28;20044;-65
2023/07/31 12:06:34;;;;;;;3.53;1.25;;;;;;;;;;21077850;28;20088;-65
2023/07/31 12:16:35;;;;;;;2.35;1.88;;;;;;;;;;21077443;28;20362;-64
2023/07/31 12:26:36;;;;;;;6.63;1.70;;;;;;;;;;21079167;28;20419;-65
2023/07/31 12:36:39;;;;;;;2.38;1.70;;;;;;;;;;21081023;28;20488;-64
2023/07/31 12:46:40;;;;;;;10.73;2.92;;;;;;;;;;21096300;28;20048;-64
2023/07/31 12:56:41;;;;;;;3.75;1.58;;;;;;;;;;21095734;28;20393;-65
2023/07/31 13:06:42;;;;;;;2.38;1.45;;;;;;;;;;21094937;28;20509;-66
2023/07/31 13:16:43;;;;;;;3.10;1.73;;;;;;;;;;21092498;28;20056;-65
2023/07/31 13:26:45;;;;;;;7.68;2.13;;;;;;;;;;21092869;28;20135;-64
2023/07/31 13:36:46;;;;;;;4.15;1.58;;;;;;;;;;21091984;28;20097;-65
2023/07/31 13:46:47;;;;;;;4.25;2.00;;;;;;;;;;21092381;28;20106;-64
2023/07/31 13:56:48;;;;;;;2.33;1.50;;;;;;;;;;21090926;28;20051;-65
2023/07/31 14:06:50;;;;;;;2.40;1.52;;;;;;;;;;21090163;28;20040;-65
2023/07/31 14:16:51;;;;;;;2.10;1.40;;;;;;;;;;21090404;28;20503;-65
2023/07/31 14:26:52;;;;;;;3.70;1.73;;;;;;;;;;21087267;28;20089;-64
2023/07/31 14:36:53;;;;;;;2.28;1.45;;;;;;;;;;21086489;28;20119;-64
2023/07/31 14:46:54;;;;;;;3.20;1.83;;;;;;;;;;21087072;28;20044;-65
2023/07/31 14:56:55;;;;;;;2.58;1.38;;;;;;;;;;21085830;28;20476;-64
2023/07/31 15:06:57;;;;;;;2.53;1.02;;;;;;;;;;21083481;28;20040;-64
2023/07/31 15:16:58;;;;;;;5.18;1.40;;;;;;;;;;21085344;28;20059;-65
2023/07/31 15:27:01;;;;;;;4.78;1.70;;;;;;;;;;21082767;28;20048;-65
2023/07/31 15:37:02;;;;;;;4.07;1.47;;;;;;;;;;21080071;28;20100;-64
2023/07/31 15:47:04;;;;;;;2.00;1.48;;;;;;;;;;21079558;28;20533;-64
2023/07/31 15:57:05;;;;;;;4.55;2.40;;;;;;;;;;21079224;28;20124;-65
2023/07/31 16:07:06;;;;;;;2.83;1.60;;;;;;;;;;21079124;28;20046;-65
2023/07/31 16:17:08;;;;;;;2.40;1.20;;;;;;;;;;21080617;28;20055;-64
2023/07/31 16:27:09;;;;;;;4.10;1.63;;;;;;;;;;21079501;28;20044;-65
2023/07/31 16:37:10;;;;;;;3.15;1.30;;;;;;;;;;21077395;28;20039;-65
2023/07/31 16:47:11;;;;;;;2.03;1.67;;;;;;;;;;21078616;28;20460;-65
2023/07/31 16:57:12;;;;;;;2.92;1.48;;;;;;;;;;21077136;28;20036;-66
2023/07/31 17:07:13;;;;;;;3.75;1.70;;;;;;;;;;21078406;28;20039;-65
2023/07/31 17:17:14;;;;;;;2.35;1.58;;;;;;;;;;21078331;28;20488;-64
2023/07/31 17:27:15;;;;;;;1.95;1.60;;;;;;;;;;21085768;28;20051;-64
2023/07/31 17:37:17;;;;;;;4.68;2.20;;;;;;;;;;21091984;28;20048;-64
2023/07/31 17:47:18;;;;;;;2.95;2.40;;;;;;;;;;21091393;28;20048;-65
2023/07/31 17:57:19;;;;;;;7.47;4.95;;;;;;;;;;21090792;28;20054;-64
2023/07/31 18:07:20;;;;;;;3.00;2.70;;;;;;;;;;21089828;28;20171;-65
2023/07/31 18:17:21;;;;;;;3.17;2.67;;;;;;;;;;21090377;28;20056;-65
2023/07/31 18:27:23;;;;;;;5.88;2.75;;;;;;;;;;21088676;28;20062;-65
2023/07/31 18:37:24;;;;;;;3.70;2.80;;;;;;;;;;21086046;28;20047;-65
2023/07/31 18:47:25;;;;;;;5.25;2.97;;;;;;;;;;21086817;28;20462;-65
2023/07/31 18:57:27;;;;;;;3.88;2.80;;;;;;;;;;21085688;28;20424;-65
2023/07/31 19:07:28;;;;;;;6.05;3.05;;;;;;;;;;21083830;28;20048;-64
2023/07/31 19:17:29;;;;;;;3.38;2.80;;;;;;;;;;21084309;28;20051;-65
2023/07/31 19:27:30;;;;;;;4.25;2.67;;;;;;;;;;21083584;28;20048;-64
2023/07/31 19:37:31;;;;;;;2.75;2.30;;;;;;;;;;21082547;28;20043;-64
2023/07/31 19:47:32;;;;;;;4.03;2.40;;;;;;;;;;21081347;28;20096;-66
2023/07/31 19:57:34;;;;;;;4.82;2.25;;;;;;;;;;21080764;28;20040;-65
2023/07/31 20:07:35;;;;;;;7.07;2.95;;;;;;;;;;21078740;28;20036;-66
2023/07/31 20:17:36;;;;;;;6.20;3.60;;;;;;;;;;21078581;28;20040;-68
2023/07/31 20:27:37;;;;;;;5.85;3.17;;;;;;;;;;21079633;28;20036;-65
2023/07/31 20:37:38;;;;;;;7.03;3.35;;;;;;;;;;21079151;28;20051;-66
2023/07/31 20:47:41;;;;;;;5.57;2.63;;;;;;;;;;21078625;28;20102;-65
2023/07/31 20:57:42;;;;;;;4.82;3.55;;;;;;;;;;21078326;28;20097;-65
2023/07/31 21:07:43;;;;;;;5.07;2.95;;;;;;;;;;21093273;28;20044;-66
2023/07/31 21:17:44;;;;;;;5.35;3.22;;;;;;;;;;21092658;28;20044;-66
2023/07/31 21:27:46;;;;;;;3.70;2.47;;;;;;;;;;21093171;28;20508;-66
2023/07/31 21:37:47;;;;;;;2.85;2.50;;;;;;;;;;21092370;28;20477;-66
2023/07/31 21:47:49;;;;;;;5.47;2.90;;;;;;;;;;21090455;28;20048;-66
2023/07/31 21:57:50;;;;;;;8.18;2.95;;;;;;;;;;21090973;28;20397;-66
2023/07/31 22:07:52;;;;;;;4.10;2.55;;;;;;;;;;21087483;28;20113;-66
2023/07/31 22:17:53;;;;;;;4.57;2.53;;;;;;;;;;21088691;28;20440;-65
2023/07/31 22:27:54;;;;;;;3.95;3.25;;;;;;;;;;21088149;28;20059;-66
2023/07/31 22:37:55;;;;;;;4.68;3.03;;;;;;;;;;21086965;28;20047;-66
2023/07/31 22:47:56;;;;;;;4.40;2.60;;;;;;;;;;21086708;28;20083;-66
2023/07/31 22:57:57;;;;;;;6.78;3.42;;;;;;;;;;21087028;28;20393;-65
2023/07/31 23:07:58;;;;;;;6.75;3.50;;;;;;;;;;21085199;28;20052;-64
2023/07/31 23:17:59;;;;;;;5.85;3.60;;;;;;;;;;21084498;28;20048;-65
2023/07/31 23:28:01;;;;;;;5.35;3.97;;;;;;;;;;21083238;28;20561;-66
2023/07/31 23:38:02;;;;;;;7.80;4.22;;;;;;;;;;21083253;28;20047;-66
2023/07/31 23:48:04;;;;;;;5.88;4.15;;;;;;;;;;21081361;28;20127;-65
2023/07/31 23:58:06;;;;;;;6.60;4.18;;;;;;;;;;21081861;28;20406;-65
